sensor_id;sensor_type;location;lat;lon;timestamp;pressure;altitude;pressure_sealevel;temperature;humidity
19890;BME280;10107;51.198;6.824;2023-02-19T00:01:52;-21566.72;;;9.42;100.00
19890;BME280;10107;51.198;6.824;2023-02-19T00:05:54;-21566.59;;;9.42;100.00
19890;BME280;10107;51.198;6.824;2023-02-19T00:09:57;-21566.59;;;9.42;100.00
19890;BME280;10107;51.198;6.824;2023-02-19T00:13:59;-21565.66;;;9.38;100.00
19890;BME280;10107;51.198;6.824;2023-02-19T00:18:01;-21566.34;;;9.41;100.00
19890;BME280;10107;51.198;6.824;2023-02-19T00:22:03;-21565.81;;;9.39;100.00
19890;BME280;10107;51.198;6.824;2023-02-19T00:26:08;-21566.72;;;9.42;100.00
19890;BME280;10107;51.198;6.824;2023-02-19T00:30:11;-21566.72;;;9.42;100.00
19890;BME280;10107;51.198;6.824;2023-02-19T00:34:13;-21567.00;;;9.43;100.00
19890;BME280;10107;51.198;6.824;2023-02-19T00:38:15;-21566.06;;;9.40;100.00
19890;BME280;10107;51.198;6.824;2023-02-19T00:42:20;-21566.88;;;9.43;100.00
19890;BME280;10107;51.198;6.824;2023-02-19T00:46:24;-21565.81;;;9.39;100.00
19890;BME280;10107;51.198;6.824;2023-02-19T00:50:26;-21565.00;;;9.36;100.00
19890;BME280;10107;51.198;6.824;2023-02-19T00:54:27;-21564.47;;;9.34;100.00
19890;BME280;10107;51.198;6.824;2023-02-19T00:58:33;-21563.94;;;9.31;100.00
19890;BME280;10107;51.198;6.824;2023-02-19T01:02:35;-21564.34;;;9.33;100.00
19890;BME280;10107;51.198;6.824;2023-02-19T01:06:36;-21564.09;;;9.32;100.00
19890;BME280;10107;51.198;6.824;2023-02-19T01:10:38;-21563.94;;;9.31;100.00
19890;BME280;10107;51.198;6.824;2023-02-19T01:14:41;-21564.09;;;9.32;100.00
19890;BME280;10107;51.198;6.824;2023-02-19T01:18:43;-21564.09;;;9.32;100.00
19890;BME280;10107;51.198;6.824;2023-02-19T01:22:45;-21564.47;;;9.34;100.00
19890;BME280;10107;51.198;6.824;2023-02-19T01:26:47;-21564.88;;;9.35;100.00
19890;BME280;10107;51.198;6.824;2023-02-19T01:30:49;-21565.00;;;9.36;100.00
19890;BME280;10107;51.198;6.824;2023-02-19T01:34:51;-21564.75;;;9.35;100.00
19890;BME280;10107;51.198;6.824;2023-02-19T01:38:53;-21565.53;;;9.38;100.00
19890;BME280;10107;51.198;6.824;2023-02-19T01:42:55;-21565.81;;;9.39;100.00
19890;BME280;10107;51.198;6.824;2023-02-19T01:46:58;-21566.06;;;9.40;100.00
19890;BME280;10107;51.198;6.824;2023-02-19T01:51:04;-21567.00;;;9.43;100.00
19890;BME280;10107;51.198;6.824;2023-02-19T01:55:10;-21566.72;;;9.42;100.00
19890;BME280;10107;51.198;6.824;2023-02-19T01:59:13;-21567.13;;;9.44;100.00
19890;BME280;10107;51.198;6.824;2023-02-19T02:03:16;-21566.72;;;9.42;100.00
19890;BME280;10107;51.198;6.824;2023-02-19T02:07:19;-21567.41;;;9.45;100.00
19890;BME280;10107;51.198;6.824;2023-02-19T02:11:41;-21567.13;;;9.44;100.00
19890;BME280;10107;51.198;6.824;2023-02-19T02:15:51;-21566.72;;;9.42;100.00
19890;BME280;10107;51.198;6.824;2023-02-19T02:20:16;-21565.53;;;9.38;100.00
19890;BME280;10107;51.198;6.824;2023-02-19T02:33:41;-21562.50;;;9.26;100.00
19890;BME280;10107;51.198;6.824;2023-02-19T02:37:46;-21561.28;;;9.21;100.00
19890;BME280;10107;51.198;6.824;2023-02-19T02:41:50;-21560.38;;;9.18;100.00
19890;BME280;10107;51.198;6.824;2023-02-19T02:46:17;-21560.09;;;9.17;100.00
19890;BME280;10107;51.198;6.824;2023-02-19T02:50:24;-21559.97;;;9.16;100.00
19890;BME280;10107;51.198;6.824;2023-02-19T02:54:28;-21559.97;;;9.16;100.00
19890;BME280;10107;51.198;6.824;2023-02-19T02:58:52;-21559.44;;;9.14;100.00
19890;BME280;10107;51.198;6.824;2023-02-19T03:02:55;-21559.97;;;9.16;100.00
19890;BME280;10107;51.198;6.824;2023-02-19T03:07:03;-21559.97;;;9.16;100.00
19890;BME280;10107;51.198;6.824;2023-02-19T03:11:12;-21559.69;;;9.15;100.00
19890;BME280;10107;51.198;6.824;2023-02-19T03:15:36;-21559.56;;;9.15;100.00
19890;BME280;10107;51.198;6.824;2023-02-19T03:19:57;-21559.44;;;9.14;100.00
19890;BME280;10107;51.198;6.824;2023-02-19T03:24:04;-21558.63;;;9.11;100.00
19890;BME280;10107;51.198;6.824;2023-02-19T03:28:27;-21558.63;;;9.11;100.00
19890;BME280;10107;51.198;6.824;2023-02-19T03:32:47;-21558.38;;;9.10;100.00
19890;BME280;10107;51.198;6.824;2023-02-19T03:36:53;-21557.97;;;9.08;100.00
19890;BME280;10107;51.198;6.824;2023-02-19T03:41:05;-21557.56;;;9.07;100.00
19890;BME280;10107;51.198;6.824;2023-02-19T03:45:23;-21557.72;;;9.07;100.00
19890;BME280;10107;51.198;6.824;2023-02-19T03:49:29;-21556.50;;;9.03;100.00
19890;BME280;10107;51.198;6.824;2023-02-19T03:53:37;-21556.50;;;9.03;100.00
19890;BME280;10107;51.198;6.824;2023-02-19T03:57:46;-21555.97;;;9.01;100.00
19890;BME280;10107;51.198;6.824;2023-02-19T04:01:53;-21555.97;;;9.01;100.00
19890;BME280;10107;51.198;6.824;2023-02-19T04:05:59;-21556.25;;;9.02;100.00
19890;BME280;10107;51.198;6.824;2023-02-19T04:10:02;-21556.78;;;9.04;100.00
19890;BME280;10107;51.198;6.824;2023-02-19T04:14:09;-21556.78;;;9.04;100.00
19890;BME280;10107;51.198;6.824;2023-02-19T04:18:15;-21557.03;;;9.05;100.00
19890;BME280;10107;51.198;6.824;2023-02-19T04:22:19;-21556.50;;;9.03;100.00
19890;BME280;10107;51.198;6.824;2023-02-19T04:26:21;-21556.78;;;9.04;100.00
19890;BME280;10107;51.198;6.824;2023-02-19T04:30:25;-21556.38;;;9.02;100.00
19890;BME280;10107;51.198;6.824;2023-02-19T04:34:26;-21556.50;;;9.03;100.00
19890;BME280;10107;51.198;6.824;2023-02-19T04:38:28;-21556.50;;;9.03;100.00
19890;BME280;10107;51.198;6.824;2023-02-19T04:42:29;-21557.03;;;9.05;100.00
19890;BME280;10107;51.198;6.824;2023-02-19T04:46:32;-21556.78;;;9.04;100.00
19890;BME280;10107;51.198;6.824;2023-02-19T04:50:36;-21556.38;;;9.02;100.00
19890;BME280;10107;51.198;6.824;2023-02-19T04:54:38;-21556.91;;;9.04;100.00
19890;BME280;10107;51.198;6.824;2023-02-19T04:58:41;-21556.50;;;9.03;100.00
19890;BME280;10107;51.198;6.824;2023-02-19T05:02:44;-21555.72;;;9.00;100.00
19890;BME280;10107;51.198;6.824;2023-02-19T05:06:46;-21555.19;;;8.98;100.00
19890;BME280;10107;51.198;6.824;2023-02-19T05:10:47;-21555.06;;;8.97;100.00
19890;BME280;10107;51.198;6.824;2023-02-19T05:14:49;-21555.44;;;8.99;100.00
19890;BME280;10107;51.198;6.824;2023-02-19T05:18:52;-21555.06;;;8.97;100.00
19890;BME280;10107;51.198;6.824;2023-02-19T05:22:54;-21554.53;;;8.95;100.00
19890;BME280;10107;51.198;6.824;2023-02-19T05:26:56;-21554.38;;;8.95;100.00
19890;BME280;10107;51.198;6.824;2023-02-19T05:31:03;-21553.72;;;8.92;100.00
19890;BME280;10107;51.198;6.824;2023-02-19T05:35:06;-21553.31;;;8.90;100.00
19890;BME280;10107;51.198;6.824;2023-02-19T05:39:10;-21553.31;;;8.90;100.00
19890;BME280;10107;51.198;6.824;2023-02-19T05:43:12;-21553.47;;;8.91;100.00
19890;BME280;10107;51.198;6.824;2023-02-19T05:47:13;-21552.94;;;8.89;100.00
19890;BME280;10107;51.198;6.824;2023-02-19T05:51:19;-21553.06;;;8.89;100.00
19890;BME280;10107;51.198;6.824;2023-02-19T05:55:21;-21552.78;;;8.88;100.00
19890;BME280;10107;51.198;6.824;2023-02-19T05:59:24;-21552.25;;;8.86;100.00
19890;BME280;10107;51.198;6.824;2023-02-19T06:03:26;-21551.59;;;8.84;100.00
19890;BME280;10107;51.198;6.824;2023-02-19T06:07:29;-21550.94;;;8.81;100.00
19890;BME280;10107;51.198;6.824;2023-02-19T06:11:31;-21550.13;;;8.78;100.00
19890;BME280;10107;51.198;6.824;2023-02-19T06:15:34;-21548.94;;;8.74;100.00
19890;BME280;10107;51.198;6.824;2023-02-19T06:19:36;-21548.69;;;8.72;100.00
19890;BME280;10107;51.198;6.824;2023-02-19T06:23:39;-21548.28;;;8.71;100.00
19890;BME280;10107;51.198;6.824;2023-02-19T06:27:41;-21548.41;;;8.71;100.00
19890;BME280;10107;51.198;6.824;2023-02-19T06:31:44;-21547.88;;;8.69;100.00
19890;BME280;10107;51.198;6.824;2023-02-19T06:35:45;-21547.75;;;8.69;100.00
19890;BME280;10107;51.198;6.824;2023-02-19T06:39:48;-21547.75;;;8.69;100.00
19890;BME280;10107;51.198;6.824;2023-02-19T06:43:50;-21546.69;;;8.65;100.00
19890;BME280;10107;51.198;6.824;2023-02-19T06:47:51;-21546.03;;;8.62;100.00
19890;BME280;10107;51.198;6.824;2023-02-19T06:51:53;-21545.50;;;8.60;100.00
19890;BME280;10107;51.198;6.824;2023-02-19T06:55:57;-21544.97;;;8.58;100.00
19890;BME280;10107;51.198;6.824;2023-02-19T06:59:59;-21544.97;;;8.58;100.00
19890;BME280;10107;51.198;6.824;2023-02-19T07:04:01;-21545.09;;;8.59;100.00
19890;BME280;10107;51.198;6.824;2023-02-19T07:08:04;-21545.50;;;8.60;100.00
19890;BME280;10107;51.198;6.824;2023-02-19T07:12:07;-21545.38;;;8.60;100.00
19890;BME280;10107;51.198;6.824;2023-02-19T07:16:09;-21545.09;;;8.59;100.00
19890;BME280;10107;51.198;6.824;2023-02-19T07:20:12;-21546.69;;;8.65;100.00
19890;BME280;10107;51.198;6.824;2023-02-19T07:24:14;-21547.75;;;8.69;100.00
19890;BME280;10107;51.198;6.824;2023-02-19T07:28:17;-21547.75;;;8.69;100.00
19890;BME280;10107;51.198;6.824;2023-02-19T07:32:19;-21547.88;;;8.69;100.00
19890;BME280;10107;51.198;6.824;2023-02-19T07:36:22;-21548.28;;;8.71;100.00
19890;BME280;10107;51.198;6.824;2023-02-19T07:40:24;-21549.59;;;8.76;100.00
19890;BME280;10107;51.198;6.824;2023-02-19T07:44:27;-21550.66;;;8.80;100.00
19890;BME280;10107;51.198;6.824;2023-02-19T07:48:29;-21552.78;;;8.88;100.00
19890;BME280;10107;51.198;6.824;2023-02-19T07:52:32;-21552.94;;;8.89;100.00
19890;BME280;10107;51.198;6.824;2023-02-19T07:56:34;-21553.06;;;8.89;100.00
19890;BME280;10107;51.198;6.824;2023-02-19T08:00:37;-21554.53;;;8.95;100.00
19890;BME280;10107;51.198;6.824;2023-02-19T08:04:39;-21556.50;;;9.03;100.00
19890;BME280;10107;51.198;6.824;2023-02-19T08:08:41;-21558.63;;;9.11;100.00
19890;BME280;10107;51.198;6.824;2023-02-19T08:12:42;-21559.69;;;9.15;100.00
19890;BME280;10107;51.198;6.824;2023-02-19T08:17:03;-21559.97;;;9.16;100.00
19890;BME280;10107;51.198;6.824;2023-02-19T08:21:05;-21563.03;;;9.28;100.00
19890;BME280;10107;51.198;6.824;2023-02-19T08:25:07;-21565.81;;;9.39;100.00
19890;BME280;10107;51.198;6.824;2023-02-19T08:29:09;-21567.28;;;9.44;100.00
19890;BME280;10107;51.198;6.824;2023-02-19T08:33:14;-21567.53;;;9.45;100.00
19890;BME280;10107;51.198;6.824;2023-02-19T08:37:16;-21564.75;;;9.35;100.00
19890;BME280;10107;51.198;6.824;2023-02-19T08:41:17;-21562.75;;;9.27;100.00
19890;BME280;10107;51.198;6.824;2023-02-19T08:45:19;-21564.34;;;9.33;100.00
19890;BME280;10107;51.198;6.824;2023-02-19T08:49:26;-21564.75;;;9.35;100.00
19890;BME280;10107;51.198;6.824;2023-02-19T08:53:28;-21571.50;;;9.61;100.00
19890;BME280;10107;51.198;6.824;2023-02-19T08:57:30;-21588.47;;;10.26;100.00
19890;BME280;10107;51.198;6.824;2023-02-19T09:01:32;-21611.41;;;11.15;100.00
19890;BME280;10107;51.198;6.824;2023-02-19T09:05:36;-21606.22;;;10.95;100.00
19890;BME280;10107;51.198;6.824;2023-02-19T09:09:38;-21596.31;;;10.57;100.00
19890;BME280;10107;51.198;6.824;2023-02-19T09:13:40;-21593.00;;;10.44;100.00
19890;BME280;10107;51.198;6.824;2023-02-19T09:17:41;-21589.28;;;10.29;100.00
19890;BME280;10107;51.198;6.824;2023-02-19T09:21:44;-21589.28;;;10.29;100.00
19890;BME280;10107;51.198;6.824;2023-02-19T09:25:46;-21590.59;;;10.35;100.00
19890;BME280;10107;51.198;6.824;2023-02-19T09:29:48;-21586.22;;;10.18;100.00
19890;BME280;10107;51.198;6.824;2023-02-19T09:33:49;-21582.38;;;10.03;100.00
19890;BME280;10107;51.198;6.824;2023-02-19T09:37:52;-21579.47;;;9.91;100.00
19890;BME280;10107;51.198;6.824;2023-02-19T09:41:56;-21577.88;;;9.85;100.00
19890;BME280;10107;51.198;6.824;2023-02-19T09:46:01;-21576.03;;;9.78;100.00
19890;BME280;10107;51.198;6.824;2023-02-19T09:50:06;-21574.03;;;9.70;100.00
19890;BME280;10107;51.198;6.824;2023-02-19T09:54:16;-21572.84;;;9.66;100.00
19890;BME280;10107;51.198;6.824;2023-02-19T09:58:24;-21570.31;;;9.56;100.00
19890;BME280;10107;51.198;6.824;2023-02-19T10:02:26;-21567.41;;;9.45;100.00
19890;BME280;10107;51.198;6.824;2023-02-19T10:06:31;-21569.13;;;9.51;100.00
19890;BME280;10107;51.198;6.824;2023-02-19T10:10:37;-21570.44;;;9.57;100.00
19890;BME280;10107;51.198;6.824;2023-02-19T10:14:43;-21589.41;;;10.30;100.00
19890;BME280;10107;51.198;6.824;2023-02-19T10:18:46;-21593.38;;;10.45;100.00
19890;BME280;10107;51.198;6.824;2023-02-19T10:22:47;-21589.28;;;10.29;100.00
19890;BME280;10107;51.198;6.824;2023-02-19T10:26:51;-21598.28;;;10.64;100.00
19890;BME280;10107;51.198;6.824;2023-02-19T10:30:55;-21603.47;;;10.84;100.00
19890;BME280;10107;51.198;6.824;2023-02-19T10:35:06;-21616.69;;;11.36;100.00
19890;BME280;10107;51.198;6.824;2023-02-19T10:39:29;-21631.38;;;11.93;100.00
19890;BME280;10107;51.198;6.824;2023-02-19T10:43:36;-21644.31;;;12.43;100.00
19890;BME280;10107;51.198;6.824;2023-02-19T10:47:44;-21629.25;;;11.84;100.00
19890;BME280;10107;51.198;6.824;2023-02-19T10:51:46;-21608.75;;;11.05;100.00
19890;BME280;10107;51.198;6.824;2023-02-19T10:56:05;-21593.53;;;10.46;100.00
19890;BME280;10107;51.198;6.824;2023-02-19T11:00:20;-21584.78;;;10.12;100.00
19890;BME280;10107;51.198;6.824;2023-02-19T11:04:24;-21581.47;;;9.99;100.00
19890;BME280;10107;51.198;6.824;2023-02-19T11:08:27;-21579.59;;;9.92;100.00
19890;BME280;10107;51.198;6.824;2023-02-19T11:12:31;-21581.47;;;9.99;100.00
19890;BME280;10107;51.198;6.824;2023-02-19T11:16:46;-21582.66;;;10.04;100.00
19890;BME280;10107;51.198;6.824;2023-02-19T11:20:50;-21580.25;;;9.95;100.00
19890;BME280;10107;51.198;6.824;2023-02-19T11:24:53;-21577.09;;;9.82;100.00
19890;BME280;10107;51.198;6.824;2023-02-19T11:28:57;-21572.72;;;9.65;100.00
19890;BME280;10107;51.198;6.824;2023-02-19T11:33:13;-21567.94;;;9.47;100.00
19890;BME280;10107;51.198;6.824;2023-02-19T11:37:20;-21563.94;;;9.31;100.00
19890;BME280;10107;51.198;6.824;2023-02-19T11:41:29;-21561.03;;;9.20;100.00
19890;BME280;10107;51.198;6.824;2023-02-19T11:45:40;-21561.44;;;9.22;100.00
19890;BME280;10107;51.198;6.824;2023-02-19T11:49:52;-21567.28;;;9.44;100.00
19890;BME280;10107;51.198;6.824;2023-02-19T11:54:09;-21574.81;;;9.74;100.00
19890;BME280;10107;51.198;6.824;2023-02-19T11:58:38;-21578.28;;;9.87;100.00
19890;BME280;10107;51.198;6.824;2023-02-19T12:03:00;-21574.56;;;9.73;100.00
19890;BME280;10107;51.198;6.824;2023-02-19T12:07:14;-21566.88;;;9.43;100.00
19890;BME280;10107;51.198;6.824;2023-02-19T12:15:54;-21574.28;;;9.71;100.00
19890;BME280;10107;51.198;6.824;2023-02-19T12:20:05;-21585.69;;;10.16;100.00
19890;BME280;10107;51.198;6.824;2023-02-19T12:24:29;-21596.03;;;10.56;100.00
19890;BME280;10107;51.198;6.824;2023-02-19T12:28:55;-21595.78;;;10.55;100.00
19890;BME280;10107;51.198;6.824;2023-02-19T12:33:29;-21593.91;;;10.47;100.00
19890;BME280;10107;51.198;6.824;2023-02-19T12:37:40;-21590.75;;;10.35;100.00
19890;BME280;10107;51.198;6.824;2023-02-19T12:41:50;-21592.34;;;10.41;100.00
19890;BME280;10107;51.198;6.824;2023-02-19T12:46:00;-21593.53;;;10.46;100.00
19890;BME280;10107;51.198;6.824;2023-02-19T12:50:13;-21597.09;;;10.60;100.00
19890;BME280;10107;51.198;6.824;2023-02-19T12:54:21;-21605.31;;;10.92;100.00
19890;BME280;10107;51.198;6.824;2023-02-19T12:58:31;-21613.91;;;11.25;100.00
19890;BME280;10107;51.198;6.824;2023-02-19T13:02:40;-21616.44;;;11.35;100.00
19890;BME280;10107;51.198;6.824;2023-02-19T13:06:49;-21611.94;;;11.17;100.00
19890;BME280;10107;51.198;6.824;2023-02-19T13:10:54;-21604.38;;;10.88;100.00
19890;BME280;10107;51.198;6.824;2023-02-19T13:15:00;-21594.72;;;10.50;100.00
19890;BME280;10107;51.198;6.824;2023-02-19T13:19:04;-21587.69;;;10.23;100.00
19890;BME280;10107;51.198;6.824;2023-02-19T13:23:07;-21584.38;;;10.10;100.00
19890;BME280;10107;51.198;6.824;2023-02-19T13:27:48;-21581.31;;;9.99;100.00
19890;BME280;10107;51.198;6.824;2023-02-19T13:32:06;-21582.00;;;10.01;100.00
19890;BME280;10107;51.198;6.824;2023-02-19T13:36:15;-21583.72;;;10.08;100.00
19890;BME280;10107;51.198;6.824;2023-02-19T13:40:26;-21582.13;;;10.02;100.00
19890;BME280;10107;51.198;6.824;2023-02-19T13:44:32;-21582.25;;;10.02;100.00
19890;BME280;10107;51.198;6.824;2023-02-19T13:48:37;-21585.31;;;10.14;100.00
19890;BME280;10107;51.198;6.824;2023-02-19T13:52:40;-21588.22;;;10.25;100.00
19890;BME280;10107;51.198;6.824;2023-02-19T13:56:42;-21590.47;;;10.34;100.00
19890;BME280;10107;51.198;6.824;2023-02-19T14:00:48;-21592.88;;;10.43;100.00
19890;BME280;10107;51.198;6.824;2023-02-19T14:04:53;-21594.97;;;10.52;100.00
19890;BME280;10107;51.198;6.824;2023-02-19T14:08:57;-21594.72;;;10.50;100.00
19890;BME280;10107;51.198;6.824;2023-02-19T14:12:59;-21594.72;;;10.50;100.00
19890;BME280;10107;51.198;6.824;2023-02-19T14:17:03;-21594.97;;;10.52;100.00
19890;BME280;10107;51.198;6.824;2023-02-19T14:21:34;-21595.91;;;10.55;100.00
19890;BME280;10107;51.198;6.824;2023-02-19T14:25:45;-21599.88;;;10.70;100.00
19890;BME280;10107;51.198;6.824;2023-02-19T14:29:48;-21604.78;;;10.89;100.00
19890;BME280;10107;51.198;6.824;2023-02-19T14:33:51;-21604.66;;;10.89;100.00
19890;BME280;10107;51.198;6.824;2023-02-19T14:37:55;-21598.28;;;10.64;100.00
19890;BME280;10107;51.198;6.824;2023-02-19T14:41:59;-21588.63;;;10.27;100.00
19890;BME280;10107;51.198;6.824;2023-02-19T14:46:06;-21580.94;;;9.97;100.00
19890;BME280;10107;51.198;6.824;2023-02-19T14:50:16;-21574.69;;;9.73;100.00
19890;BME280;10107;51.198;6.824;2023-02-19T14:54:32;-21570.19;;;9.56;100.00
19890;BME280;10107;51.198;6.824;2023-02-19T14:58:36;-21567.13;;;9.44;100.00
19890;BME280;10107;51.198;6.824;2023-02-19T15:02:41;-21565.66;;;9.38;100.00
19890;BME280;10107;51.198;6.824;2023-02-19T15:06:43;-21565.53;;;9.38;100.00
19890;BME280;10107;51.198;6.824;2023-02-19T15:10:46;-21566.19;;;9.40;100.00
19890;BME280;10107;51.198;6.824;2023-02-19T15:14:50;-21566.34;;;9.41;100.00
19890;BME280;10107;51.198;6.824;2023-02-19T15:18:54;-21567.81;;;9.46;100.00
19890;BME280;10107;51.198;6.824;2023-02-19T15:22:58;-21569.53;;;9.53;100.00
19890;BME280;10107;51.198;6.824;2023-02-19T15:27:02;-21569.66;;;9.54;100.00
19890;BME280;10107;51.198;6.824;2023-02-19T15:31:05;-21569.25;;;9.52;100.00
19890;BME280;10107;51.198;6.824;2023-02-19T15:35:17;-21567.66;;;9.46;100.00
19890;BME280;10107;51.198;6.824;2023-02-19T15:39:22;-21564.75;;;9.35;100.00
19890;BME280;10107;51.198;6.824;2023-02-19T15:43:27;-21562.22;;;9.25;100.00
19890;BME280;10107;51.198;6.824;2023-02-19T15:47:34;-21560.38;;;9.18;100.00
19890;BME280;10107;51.198;6.824;2023-02-19T15:51:40;-21557.31;;;9.06;100.00
19890;BME280;10107;51.198;6.824;2023-02-19T15:55:45;-21555.72;;;9.00;100.00
19890;BME280;10107;51.198;6.824;2023-02-19T15:59:53;-21553.59;;;8.91;100.00
19890;BME280;10107;51.198;6.824;2023-02-19T16:03:57;-21552.25;;;8.86;100.00
19890;BME280;10107;51.198;6.824;2023-02-19T16:08:15;-21551.06;;;8.82;100.00
19890;BME280;10107;51.198;6.824;2023-02-19T16:12:19;-21549.34;;;8.75;100.00
19890;BME280;10107;51.198;6.824;2023-02-19T16:16:25;-21548.69;;;8.72;100.00
19890;BME280;10107;51.198;6.824;2023-02-19T16:20:30;-21547.63;;;8.68;100.00
19890;BME280;10107;51.198;6.824;2023-02-19T16:24:35;-21547.22;;;8.67;100.00
19890;BME280;10107;51.198;6.824;2023-02-19T16:28:39;-21546.94;;;8.66;100.00
19890;BME280;10107;51.198;6.824;2023-02-19T16:32:43;-21547.22;;;8.67;100.00
19890;BME280;10107;51.198;6.824;2023-02-19T16:36:46;-21547.09;;;8.66;100.00
19890;BME280;10107;51.198;6.824;2023-02-19T16:41:04;-21546.41;;;8.64;100.00
19890;BME280;10107;51.198;6.824;2023-02-19T16:45:07;-21544.16;;;8.55;100.00
19890;BME280;10107;51.198;6.824;2023-02-19T16:49:10;-21542.44;;;8.48;100.00
19890;BME280;10107;51.198;6.824;2023-02-19T16:53:17;-21540.97;;;8.43;100.00
19890;BME280;10107;51.198;6.824;2023-02-19T16:57:19;-21538.31;;;8.32;100.00
19890;BME280;10107;51.198;6.824;2023-02-19T17:01:21;-21536.97;;;8.27;100.00
19890;BME280;10107;51.198;6.824;2023-02-19T17:05:25;-21535.25;;;8.21;100.00
19890;BME280;10107;51.198;6.824;2023-02-19T17:09:28;-21533.66;;;8.15;100.00
19890;BME280;10107;51.198;6.824;2023-02-19T17:13:30;-21532.19;;;8.09;100.00
19890;BME280;10107;51.198;6.824;2023-02-19T17:17:31;-21531.25;;;8.05;100.00
19890;BME280;10107;51.198;6.824;2023-02-19T17:21:35;-21530.59;;;8.03;100.00
19890;BME280;10107;51.198;6.824;2023-02-19T17:25:36;-21530.59;;;8.03;100.00
19890;BME280;10107;51.198;6.824;2023-02-19T17:29:38;-21530.59;;;8.03;100.00
19890;BME280;10107;51.198;6.824;2023-02-19T17:33:40;-21529.94;;;8.00;100.00
19890;BME280;10107;51.198;6.824;2023-02-19T17:37:44;-21529.53;;;7.99;100.00
19890;BME280;10107;51.198;6.824;2023-02-19T17:41:45;-21529.41;;;7.98;100.00
19890;BME280;10107;51.198;6.824;2023-02-19T17:45:47;-21528.88;;;7.96;100.00
19890;BME280;10107;51.198;6.824;2023-02-19T17:49:49;-21528.47;;;7.94;100.00
19890;BME280;10107;51.198;6.824;2023-02-19T17:53:52;-21527.53;;;7.91;100.00
19890;BME280;10107;51.198;6.824;2023-02-19T17:57:54;-21526.47;;;7.87;100.00
19890;BME280;10107;51.198;6.824;2023-02-19T18:01:55;-21526.22;;;7.86;100.00
19890;BME280;10107;51.198;6.824;2023-02-19T18:05:57;-21525.53;;;7.83;100.00
19890;BME280;10107;51.198;6.824;2023-02-19T18:10:00;-21524.34;;;7.79;100.00
19890;BME280;10107;51.198;6.824;2023-02-19T18:14:02;-21523.16;;;7.74;100.00
19890;BME280;10107;51.198;6.824;2023-02-19T18:18:03;-21521.81;;;7.69;100.00
19890;BME280;10107;51.198;6.824;2023-02-19T18:22:05;-21521.16;;;7.66;100.00
19890;BME280;10107;51.198;6.824;2023-02-19T18:26:09;-21520.88;;;7.65;100.00
19890;BME280;10107;51.198;6.824;2023-02-19T18:30:15;-21519.69;;;7.61;100.00
19890;BME280;10107;51.198;6.824;2023-02-19T18:34:18;-21517.84;;;7.53;100.00
19890;BME280;10107;51.198;6.824;2023-02-19T18:38:19;-21516.38;;;7.48;100.00
19890;BME280;10107;51.198;6.824;2023-02-19T18:42:22;-21515.44;;;7.44;100.00
19890;BME280;10107;51.198;6.824;2023-02-19T18:46:24;-21513.69;;;7.38;100.00
19890;BME280;10107;51.198;6.824;2023-02-19T18:50:26;-21512.38;;;7.32;100.00
19890;BME280;10107;51.198;6.824;2023-02-19T18:54:29;-21511.56;;;7.29;100.00
19890;BME280;10107;51.198;6.824;2023-02-19T18:58:32;-21511.03;;;7.27;100.00
19890;BME280;10107;51.198;6.824;2023-02-19T19:02:34;-21510.63;;;7.26;100.00
19890;BME280;10107;51.198;6.824;2023-02-19T19:06:35;-21509.72;;;7.22;100.00
19890;BME280;10107;51.198;6.824;2023-02-19T19:10:49;-21508.91;;;7.19;100.00
19890;BME280;10107;51.198;6.824;2023-02-19T19:14:55;-21508.91;;;7.19;100.00
19890;BME280;10107;51.198;6.824;2023-02-19T19:18:57;-21508.38;;;7.17;100.00
19890;BME280;10107;51.198;6.824;2023-02-19T19:22:59;-21508.09;;;7.16;100.00
19890;BME280;10107;51.198;6.824;2023-02-19T19:27:00;-21507.97;;;7.16;100.00
19890;BME280;10107;51.198;6.824;2023-02-19T19:31:04;-21507.97;;;7.16;100.00
19890;BME280;10107;51.198;6.824;2023-02-19T19:35:06;-21508.09;;;7.16;100.00
19890;BME280;10107;51.198;6.824;2023-02-19T19:39:08;-21508.25;;;7.17;100.00
19890;BME280;10107;51.198;6.824;2023-02-19T19:43:10;-21507.44;;;7.13;100.00
19890;BME280;10107;51.198;6.824;2023-02-19T19:47:13;-21507.31;;;7.13;100.00
19890;BME280;10107;51.198;6.824;2023-02-19T19:51:15;-21507.31;;;7.13;100.00
19890;BME280;10107;51.198;6.824;2023-02-19T19:55:18;-21507.31;;;7.13;100.00
19890;BME280;10107;51.198;6.824;2023-02-19T19:59:21;-21507.84;;;7.15;100.00
19890;BME280;10107;51.198;6.824;2023-02-19T20:03:24;-21507.03;;;7.12;100.00
19890;BME280;10107;51.198;6.824;2023-02-19T20:07:26;-21506.25;;;7.09;100.00
19890;BME280;10107;51.198;6.824;2023-02-19T20:11:28;-21504.78;;;7.03;100.00
19890;BME280;10107;51.198;6.824;2023-02-19T20:15:30;-21501.31;;;6.90;100.00
19890;BME280;10107;51.198;6.824;2023-02-19T20:19:33;-21498.66;;;6.80;100.00
19890;BME280;10107;51.198;6.824;2023-02-19T20:23:36;-21495.59;;;6.68;100.00
19890;BME280;10107;51.198;6.824;2023-02-19T20:27:38;-21492.25;;;6.55;100.00
19890;BME280;10107;51.198;6.824;2023-02-19T20:31:46;-21489.72;;;6.45;100.00
19890;BME280;10107;51.198;6.824;2023-02-19T20:35:50;-21485.72;;;6.30;100.00
19890;BME280;10107;51.198;6.824;2023-02-19T20:39:52;-21482.94;;;6.19;100.00
19890;BME280;10107;51.198;6.824;2023-02-19T20:43:53;-21480.53;;;6.10;100.00
19890;BME280;10107;51.198;6.824;2023-02-19T20:47:55;-21478.13;;;6.01;100.00
19890;BME280;10107;51.198;6.824;2023-02-19T20:52:00;-21477.06;;;5.97;100.00
19890;BME280;10107;51.198;6.824;2023-02-19T20:56:04;-21476.00;;;5.92;100.00
19890;BME280;10107;51.198;6.824;2023-02-19T21:00:07;-21473.59;;;5.83;100.00
19890;BME280;10107;51.198;6.824;2023-02-19T21:04:09;-21471.84;;;5.77;100.00
19890;BME280;10107;51.198;6.824;2023-02-19T21:08:13;-21469.44;;;5.67;100.00
19890;BME280;10107;51.198;6.824;2023-02-19T21:12:17;-21467.19;;;5.59;100.00
19890;BME280;10107;51.198;6.824;2023-02-19T21:16:19;-21465.84;;;5.53;100.00
19890;BME280;10107;51.198;6.824;2023-02-19T21:20:20;-21464.25;;;5.47;100.00
19890;BME280;10107;51.198;6.824;2023-02-19T21:24:24;-21463.31;;;5.44;100.00
19890;BME280;10107;51.198;6.824;2023-02-19T21:28:25;-21461.56;;;5.37;100.00
19890;BME280;10107;51.198;6.824;2023-02-19T21:32:27;-21460.25;;;5.32;100.00